Time;durP1;ratioP1;P1;durP2;ratioP2;P2;SDS_P1;SDS_P2;PMS_P1;PMS_P2;Temp;Humidity;BMP_temperature;BMP_pressure;BME280_temperature;BME280_humidity;BME280_pressure;Samples;Min_cycle;Max_cycle;Signal;HPM_P1;HPM_P2
2022/04/23 00:01:15;;;;;;;31.77;20.95;;;;;;;;;;5017271;28;20036;-60
2022/04/23 00:03:41;;;;;;;30.17;20.73;;;;;;;;;;5032450;28;20029;-60
2022/04/23 00:06:06;;;;;;;30.55;20.92;;;;;;;;;;5044655;28;20429;-60
2022/04/23 00:08:32;;;;;;;33.53;22.33;;;;;;;;;;5022294;28;20113;-60
2022/04/23 00:10:58;;;;;;;32.63;21.60;;;;;;;;;;5033295;28;20384;-60
2022/04/23 00:13:24;;;;;;;31.33;21.45;;;;;;;;;;5028755;28;20128;-61
2022/04/23 00:15:49;;;;;;;34.42;22.63;;;;;;;;;;5035051;28;20075;-60
2022/04/23 00:18:14;;;;;;;34.05;22.92;;;;;;;;;;5034262;28;20029;-61
2022/04/23 00:20:40;;;;;;;33.80;21.65;;;;;;;;;;5035235;28;20087;-61
2022/04/23 00:23:07;;;;;;;34.47;22.33;;;;;;;;;;5040648;28;20049;-60
2022/04/23 00:25:35;;;;;;;33.00;22.48;;;;;;;;;;5027840;28;20036;-62
2022/04/23 00:28:01;;;;;;;33.72;22.83;;;;;;;;;;5020426;28;20034;-61
2022/04/23 00:30:26;;;;;;;35.47;22.90;;;;;;;;;;5030646;28;20466;-60
2022/04/23 00:32:52;;;;;;;35.95;22.95;;;;;;;;;;5026161;28;20029;-60
2022/04/23 00:35:18;;;;;;;35.45;23.30;;;;;;;;;;5029535;28;20579;-60
2022/04/23 00:37:44;;;;;;;37.50;23.63;;;;;;;;;;5047591;28;20059;-60
2022/04/23 00:40:17;;;;;;;36.53;23.20;;;;;;;;;;5038230;28;20116;-61
2022/04/23 00:42:51;;;;;;;33.25;22.88;;;;;;;;;;5042135;28;20092;-61
2022/04/23 00:45:20;;;;;;;37.92;24.42;;;;;;;;;;5029071;28;20172;-60
2022/04/23 00:47:46;;;;;;;34.72;23.73;;;;;;;;;;5015888;28;20056;-61
2022/04/23 00:50:12;;;;;;;37.38;24.20;;;;;;;;;;5027974;28;20041;-61
2022/04/23 00:52:38;;;;;;;38.58;23.85;;;;;;;;;;5041822;28;20037;-61
2022/04/23 00:55:04;;;;;;;38.58;24.08;;;;;;;;;;5024613;28;20692;-60
2022/04/23 00:57:31;;;;;;;38.75;24.48;;;;;;;;;;5019997;28;20467;-60
2022/04/23 00:59:56;;;;;;;36.47;24.60;;;;;;;;;;5036382;28;20474;-60
2022/04/23 01:02:22;;;;;;;38.30;24.70;;;;;;;;;;5034521;28;20033;-61
2022/04/23 01:04:48;;;;;;;38.83;24.70;;;;;;;;;;5024420;28;20124;-61
2022/04/23 01:07:14;;;;;;;36.83;24.38;;;;;;;;;;5024841;28;20038;-62
2022/04/23 01:09:44;;;;;;;37.80;24.65;;;;;;;;;;5033224;28;20386;-61
2022/04/23 01:12:11;;;;;;;35.50;23.52;;;;;;;;;;5031014;28;20040;-61
2022/04/23 01:14:57;;;;;;;35.65;24.13;;;;;;;;;;5029173;28;20032;-60
2022/04/23 01:17:22;;;;;;;37.58;24.20;;;;;;;;;;5013801;28;20052;-60
2022/04/23 01:19:47;;;;;;;38.50;23.50;;;;;;;;;;5019247;28;20398;-60
2022/04/23 01:22:13;;;;;;;36.72;23.92;;;;;;;;;;5038183;28;20046;-60
2022/04/23 01:24:38;;;;;;;36.00;24.23;;;;;;;;;;5035793;28;20485;-60
2022/04/23 01:27:05;;;;;;;37.10;24.50;;;;;;;;;;5027444;28;20037;-60
2022/04/23 01:29:30;;;;;;;35.75;24.15;;;;;;;;;;5038160;28;20029;-61
2022/04/23 01:31:56;;;;;;;38.60;24.38;;;;;;;;;;5023673;28;20439;-61
2022/04/23 01:34:21;;;;;;;37.78;24.10;;;;;;;;;;5014819;28;20100;-60
2022/04/23 01:36:46;;;;;;;38.80;23.65;;;;;;;;;;5014892;28;21358;-61
2022/04/23 01:39:12;;;;;;;37.70;23.90;;;;;;;;;;5037873;28;20041;-60
2022/04/23 01:41:37;;;;;;;38.80;24.40;;;;;;;;;;5052126;28;20029;-60
2022/04/23 01:44:03;;;;;;;36.40;24.38;;;;;;;;;;5045117;28;20489;-61
2022/04/23 01:46:28;;;;;;;38.13;23.52;;;;;;;;;;5013990;28;20034;-60
2022/04/23 01:48:53;;;;;;;39.08;23.10;;;;;;;;;;5046781;28;20082;-62
2022/04/23 01:51:19;;;;;;;35.58;23.88;;;;;;;;;;5042950;28;20036;-60
2022/04/23 01:53:44;;;;;;;36.60;23.55;;;;;;;;;;5051178;28;20032;-60
2022/04/23 01:56:11;;;;;;;37.30;24.17;;;;;;;;;;5044565;28;20040;-61
2022/04/23 01:58:37;;;;;;;36.75;24.02;;;;;;;;;;5051711;28;20037;-60
2022/04/23 02:01:02;;;;;;;35.15;24.27;;;;;;;;;;5040803;28;20454;-60
2022/04/23 02:03:29;;;;;;;37.20;23.20;;;;;;;;;;5024014;28;20132;-60
2022/04/23 02:05:55;;;;;;;36.67;23.05;;;;;;;;;;5043921;28;20175;-60
2022/04/23 02:08:21;;;;;;;34.85;22.33;;;;;;;;;;5051027;28;20104;-60
2022/04/23 02:10:47;;;;;;;35.67;23.35;;;;;;;;;;5047985;28;20025;-60
2022/04/23 02:13:13;;;;;;;36.20;22.98;;;;;;;;;;5049858;28;20028;-60
2022/04/23 02:15:40;;;;;;;35.00;22.45;;;;;;;;;;5049025;28;20033;-60
2022/04/23 02:18:06;;;;;;;37.42;22.65;;;;;;;;;;5049055;28;20040;-61
2022/04/23 02:20:32;;;;;;;37.33;22.70;;;;;;;;;;5029223;28;20128;-60
2022/04/23 02:22:57;;;;;;;34.30;22.13;;;;;;;;;;5034651;28;20046;-60
2022/04/23 02:25:24;;;;;;;37.30;23.98;;;;;;;;;;5037993;28;20024;-60
2022/04/23 02:27:50;;;;;;;37.40;22.73;;;;;;;;;;5051477;28;20033;-60
2022/04/23 02:30:17;;;;;;;35.80;23.38;;;;;;;;;;5046388;28;20024;-60
2022/04/23 02:32:44;;;;;;;34.95;22.70;;;;;;;;;;5051480;28;20482;-60
2022/04/23 02:35:10;;;;;;;37.22;23.67;;;;;;;;;;5048430;28;20036;-60
2022/04/23 02:37:36;;;;;;;34.05;22.88;;;;;;;;;;5030539;28;20437;-60
2022/04/23 02:40:06;;;;;;;34.92;22.40;;;;;;;;;;5050046;28;20029;-60
2022/04/23 02:42:33;;;;;;;32.95;22.65;;;;;;;;;;5039832;28;20074;-60
2022/04/23 02:45:00;;;;;;;34.20;23.20;;;;;;;;;;5050739;28;20041;-60
2022/04/23 02:47:29;;;;;;;34.63;22.10;;;;;;;;;;5049353;28;20194;-60
2022/04/23 02:49:55;;;;;;;32.55;22.13;;;;;;;;;;5049453;28;20134;-60
2022/04/23 02:52:20;;;;;;;34.63;23.08;;;;;;;;;;5045819;28;20482;-60
2022/04/23 02:54:46;;;;;;;34.25;22.35;;;;;;;;;;5028393;28;20115;-60
2022/04/23 02:57:12;;;;;;;34.10;21.20;;;;;;;;;;5050473;28;20033;-60
2022/04/23 02:59:39;;;;;;;33.42;22.17;;;;;;;;;;5045218;28;20025;-60
2022/04/23 03:02:05;;;;;;;34.92;22.80;;;;;;;;;;5051281;28;20021;-60
2022/04/23 03:04:30;;;;;;;35.28;22.95;;;;;;;;;;5042903;28;20108;-60
2022/04/23 03:06:56;;;;;;;34.05;22.90;;;;;;;;;;5051441;28;20104;-60
2022/04/23 03:09:22;;;;;;;33.35;22.27;;;;;;;;;;5040630;28;20040;-60
2022/04/23 03:11:48;;;;;;;34.75;22.95;;;;;;;;;;5011708;28;20375;-60
2022/04/23 03:14:13;;;;;;;34.08;22.27;;;;;;;;;;5031655;28;20033;-61
2022/04/23 03:16:39;;;;;;;37.05;23.73;;;;;;;;;;5030070;28;20125;-60
2022/04/23 03:19:04;;;;;;;35.40;22.80;;;;;;;;;;5015374;28;20068;-60
2022/04/23 03:21:30;;;;;;;35.28;22.55;;;;;;;;;;5024702;28;20032;-60
2022/04/23 03:23:55;;;;;;;33.47;23.27;;;;;;;;;;5025058;28;20441;-60
2022/04/23 03:26:20;;;;;;;36.08;23.02;;;;;;;;;;5016628;28;20113;-60
2022/04/23 03:28:46;;;;;;;36.42;22.73;;;;;;;;;;5035767;28;20037;-61
2022/04/23 03:31:11;;;;;;;37.30;23.85;;;;;;;;;;5027731;28;20034;-61
2022/04/23 03:33:37;;;;;;;33.72;22.92;;;;;;;;;;5017181;28;20026;-60
2022/04/23 03:36:03;;;;;;;34.05;22.15;;;;;;;;;;5018377;28;20034;-60
2022/04/23 03:38:28;;;;;;;33.05;22.30;;;;;;;;;;5031042;28;20028;-60
2022/04/23 03:40:54;;;;;;;32.83;22.40;;;;;;;;;;5042546;28;20074;-60
2022/04/23 03:43:20;;;;;;;33.25;22.60;;;;;;;;;;5023751;28;20033;-60
2022/04/23 03:45:46;;;;;;;33.42;22.23;;;;;;;;;;5041299;28;20040;-60
2022/04/23 03:48:13;;;;;;;33.55;22.38;;;;;;;;;;5026211;28;20030;-60
2022/04/23 03:50:39;;;;;;;31.23;21.83;;;;;;;;;;5016331;28;20037;-60
2022/04/23 03:53:04;;;;;;;34.05;22.30;;;;;;;;;;5017422;28;20033;-60
2022/04/23 03:55:31;;;;;;;31.70;21.88;;;;;;;;;;5031888;28;20062;-60
2022/04/23 03:57:56;;;;;;;33.65;21.10;;;;;;;;;;5031919;28;20033;-60
2022/04/23 04:00:23;;;;;;;33.63;21.88;;;;;;;;;;5017512;28;20052;-61
2022/04/23 04:02:54;;;;;;;33.65;21.77;;;;;;;;;;5024258;28;20467;-60
2022/04/23 04:05:20;;;;;;;30.88;21.08;;;;;;;;;;5038915;28;20033;-61
2022/04/23 04:07:47;;;;;;;30.90;20.88;;;;;;;;;;5045290;28;20034;-61
2022/04/23 04:10:16;;;;;;;31.02;20.85;;;;;;;;;;5053311;28;20033;-61
2022/04/23 04:12:42;;;;;;;31.55;21.98;;;;;;;;;;5050582;28;20375;-61
2022/04/23 04:15:13;;;;;;;31.65;20.95;;;;;;;;;;5047471;28;20032;-60
2022/04/23 04:17:40;;;;;;;30.85;21.17;;;;;;;;;;5019761;28;20041;-60
2022/04/23 04:20:13;;;;;;;29.33;20.92;;;;;;;;;;5020971;28;20491;-60
2022/04/23 04:22:40;;;;;;;31.90;21.45;;;;;;;;;;5016054;28;20504;-60
2022/04/23 04:25:07;;;;;;;29.95;21.13;;;;;;;;;;5026028;28;20030;-61
2022/04/23 04:27:34;;;;;;;29.88;20.65;;;;;;;;;;5024377;28;20043;-61
2022/04/23 04:30:01;;;;;;;30.95;21.13;;;;;;;;;;5017297;28;20073;-60
2022/04/23 04:32:26;;;;;;;31.40;21.35;;;;;;;;;;5033042;28;20030;-60
2022/04/23 04:34:51;;;;;;;29.52;21.13;;;;;;;;;;5018812;28;20376;-60
2022/04/23 04:37:17;;;;;;;32.65;21.80;;;;;;;;;;5038627;28;20425;-61
2022/04/23 04:39:43;;;;;;;32.92;22.20;;;;;;;;;;5021031;28;20034;-60
2022/04/23 04:42:11;;;;;;;33.83;21.48;;;;;;;;;;5017625;28;20044;-60
2022/04/23 04:44:37;;;;;;;33.38;21.05;;;;;;;;;;5017598;28;20083;-60
2022/04/23 04:47:02;;;;;;;31.83;20.77;;;;;;;;;;5032495;28;20156;-60
2022/04/23 04:49:28;;;;;;;31.13;21.90;;;;;;;;;;5023016;28;20033;-60
2022/04/23 04:51:54;;;;;;;32.05;21.75;;;;;;;;;;5024440;28;20091;-61
2022/04/23 04:54:21;;;;;;;31.20;21.55;;;;;;;;;;5015033;28;20463;-60
2022/04/23 04:56:56;;;;;;;31.60;21.33;;;;;;;;;;5013246;28;20037;-60
2022/04/23 04:59:22;;;;;;;29.60;20.73;;;;;;;;;;5023072;28;20074;-60
2022/04/23 05:01:49;;;;;;;32.20;22.17;;;;;;;;;;5052355;28;20025;-60
2022/04/23 05:04:15;;;;;;;33.30;22.30;;;;;;;;;;5041955;28;20033;-60
2022/04/23 05:06:40;;;;;;;30.70;20.95;;;;;;;;;;5053334;28;20090;-60
2022/04/23 05:09:06;;;;;;;31.10;20.98;;;;;;;;;;5030975;28;20438;-61
2022/04/23 05:11:32;;;;;;;29.52;20.90;;;;;;;;;;5029261;28;20029;-60
2022/04/23 05:13:57;;;;;;;31.60;21.92;;;;;;;;;;5027391;28;20092;-61
2022/04/23 05:16:23;;;;;;;36.20;22.73;;;;;;;;;;5031270;28;20030;-60
2022/04/23 05:18:48;;;;;;;32.70;21.60;;;;;;;;;;5024790;28;20795;-61
2022/04/23 05:21:14;;;;;;;31.92;22.25;;;;;;;;;;5024024;28;20064;-61
2022/04/23 05:23:39;;;;;;;33.50;23.30;;;;;;;;;;5021435;28;20040;-61
2022/04/23 05:26:05;;;;;;;33.78;22.55;;;;;;;;;;5030183;28;20038;-61
2022/04/23 05:28:31;;;;;;;35.78;23.30;;;;;;;;;;5035747;28;20037;-61
2022/04/23 05:30:56;;;;;;;33.05;22.58;;;;;;;;;;5028368;28;20116;-60
2022/04/23 05:33:22;;;;;;;32.92;22.88;;;;;;;;;;5038148;28;20025;-60
2022/04/23 05:35:48;;;;;;;34.25;22.75;;;;;;;;;;5030243;28;20034;-61
2022/04/23 05:38:13;;;;;;;33.67;23.20;;;;;;;;;;5034373;28;20030;-60
2022/04/23 05:40:38;;;;;;;35.60;23.92;;;;;;;;;;5029219;28;20407;-60
2022/04/23 05:43:04;;;;;;;36.72;23.50;;;;;;;;;;5031017;28;20029;-60
2022/04/23 05:45:30;;;;;;;37.10;24.45;;;;;;;;;;5025614;28;20468;-60
2022/04/23 05:47:57;;;;;;;34.10;23.25;;;;;;;;;;5011893;28;20353;-60
2022/04/23 05:50:23;;;;;;;34.67;23.25;;;;;;;;;;5032864;28;20044;-60
2022/04/23 05:52:49;;;;;;;35.20;23.45;;;;;;;;;;5031089;28;20037;-60
2022/04/23 05:55:14;;;;;;;35.13;23.33;;;;;;;;;;5026178;28;20156;-61
2022/04/23 05:57:40;;;;;;;37.10;24.05;;;;;;;;;;5012572;28;20033;-60
2022/04/23 06:00:08;;;;;;;34.22;23.77;;;;;;;;;;5025698;28;20041;-61
2022/04/23 06:02:34;;;;;;;35.40;24.27;;;;;;;;;;5043134;28;20033;-61
2022/04/23 06:05:00;;;;;;;37.42;24.10;;;;;;;;;;5025026;28;20041;-61
2022/04/23 06:07:25;;;;;;;35.15;24.20;;;;;;;;;;5028433;28;20048;-60
2022/04/23 06:09:51;;;;;;;35.45;23.73;;;;;;;;;;5030824;28;20029;-61
2022/04/23 06:12:16;;;;;;;35.97;23.67;;;;;;;;;;5017339;28;20033;-61
2022/04/23 06:14:42;;;;;;;33.95;23.73;;;;;;;;;;5024188;28;20033;-60
2022/04/23 06:17:08;;;;;;;34.28;24.08;;;;;;;;;;5025689;28;20065;-61
2022/04/23 06:19:34;;;;;;;35.05;24.48;;;;;;;;;;5029141;28;20029;-61
2022/04/23 06:22:00;;;;;;;36.58;25.30;;;;;;;;;;5035916;28;20116;-60
2022/04/23 06:24:26;;;;;;;35.40;24.63;;;;;;;;;;5024866;28;20479;-63
2022/04/23 06:26:51;;;;;;;34.83;24.60;;;;;;;;;;5020491;28;20031;-61
2022/04/23 06:29:17;;;;;;;33.47;23.10;;;;;;;;;;5015983;28;20029;-61
2022/04/23 06:31:42;;;;;;;35.53;24.42;;;;;;;;;;5023764;28;20041;-61
2022/04/23 06:34:08;;;;;;;36.40;23.98;;;;;;;;;;5016472;28;20053;-61
2022/04/23 06:36:34;;;;;;;37.53;24.67;;;;;;;;;;5010364;28;20515;-61
2022/04/23 06:38:59;;;;;;;37.33;25.15;;;;;;;;;;5032631;28;20438;-61
2022/04/23 06:41:25;;;;;;;36.22;25.00;;;;;;;;;;5032787;28;20065;-61
2022/04/23 06:43:51;;;;;;;36.13;25.02;;;;;;;;;;5047019;28;20036;-61
2022/04/23 06:46:17;;;;;;;35.20;23.52;;;;;;;;;;5019461;28;20040;-61
2022/04/23 06:48:43;;;;;;;37.08;25.67;;;;;;;;;;5045903;28;20029;-61
2022/04/23 06:51:08;;;;;;;36.42;24.63;;;;;;;;;;5031119;28;20072;-61
2022/04/23 06:53:34;;;;;;;36.50;24.20;;;;;;;;;;5030186;28;20040;-64
2022/04/23 06:56:01;;;;;;;37.03;24.48;;;;;;;;;;5024521;28;20364;-64
2022/04/23 06:58:26;;;;;;;37.17;24.38;;;;;;;;;;5030223;28;20503;-63
2022/04/23 07:00:52;;;;;;;34.13;23.90;;;;;;;;;;5015825;28;20045;-64
2022/04/23 07:03:18;;;;;;;34.25;24.02;;;;;;;;;;5020592;28;20034;-63
2022/04/23 07:05:43;;;;;;;35.92;24.65;;;;;;;;;;5026426;28;20045;-62
2022/04/23 07:08:09;;;;;;;36.20;24.42;;;;;;;;;;5035658;28;20068;-63
2022/04/23 07:10:34;;;;;;;38.53;24.50;;;;;;;;;;5043917;28;20116;-64
2022/04/23 07:13:00;;;;;;;34.58;24.65;;;;;;;;;;5055417;28;20037;-64
2022/04/23 07:15:28;;;;;;;37.80;24.65;;;;;;;;;;5046745;28;20034;-65
2022/04/23 07:17:54;;;;;;;34.40;24.27;;;;;;;;;;5035244;28;20060;-63
2022/04/23 07:20:19;;;;;;;36.38;25.25;;;;;;;;;;5026624;28;20065;-62
2022/04/23 07:25:32;;;;;;;38.47;23.88;;;;;;;;;;5018187;28;20044;-63
2022/04/23 07:27:58;;;;;;;34.88;23.67;;;;;;;;;;5035843;28;20468;-63
2022/04/23 07:30:24;;;;;;;34.53;23.88;;;;;;;;;;5031922;28;20033;-63
2022/04/23 07:32:52;;;;;;;38.05;24.98;;;;;;;;;;5034256;28;20117;-64
2022/04/23 07:38:13;;;;;;;35.30;24.15;;;;;;;;;;5034751;28;20048;-65
2022/04/23 07:40:40;;;;;;;36.17;24.52;;;;;;;;;;5019231;28;20029;-62
2022/04/23 07:43:11;;;;;;;36.75;23.95;;;;;;;;;;5051172;28;20037;-63
2022/04/23 07:45:40;;;;;;;35.88;24.50;;;;;;;;;;5027323;28;20033;-63
2022/04/23 07:48:07;;;;;;;35.85;24.00;;;;;;;;;;5034996;28;20064;-63
2022/04/23 07:50:33;;;;;;;34.88;23.80;;;;;;;;;;5034931;28;20029;-64
2022/04/23 07:52:59;;;;;;;37.20;24.23;;;;;;;;;;5052060;28;20052;-64
2022/04/23 07:55:25;;;;;;;34.63;23.98;;;;;;;;;;5049056;28;20390;-63
2022/04/23 07:57:50;;;;;;;36.05;23.75;;;;;;;;;;5039344;28;20035;-65
2022/04/23 08:00:16;;;;;;;37.85;23.88;;;;;;;;;;5040339;28;20475;-64
2022/04/23 08:02:42;;;;;;;37.05;24.10;;;;;;;;;;5040461;28;20025;-63
2022/04/23 08:05:12;;;;;;;35.42;23.63;;;;;;;;;;5031038;28;20037;-64
2022/04/23 08:07:39;;;;;;;35.95;23.40;;;;;;;;;;5027636;28;20053;-63
2022/04/23 08:10:06;;;;;;;34.97;22.95;;;;;;;;;;5047809;28;20048;-63
2022/04/23 08:12:34;;;;;;;35.85;23.35;;;;;;;;;;5039608;28;20401;-63
2022/04/23 08:15:01;;;;;;;35.53;23.33;;;;;;;;;;5049464;28;20100;-65
2022/04/23 08:17:26;;;;;;;35.83;23.92;;;;;;;;;;5025682;28;20378;-64
2022/04/23 08:19:52;;;;;;;33.35;23.27;;;;;;;;;;5030039;28;20038;-63
2022/04/23 08:22:17;;;;;;;34.50;23.50;;;;;;;;;;5034231;28;20040;-63
2022/04/23 08:24:43;;;;;;;36.05;23.48;;;;;;;;;;5036015;28;20104;-64
2022/04/23 08:27:08;;;;;;;39.13;24.08;;;;;;;;;;5046638;28;20037;-62
2022/04/23 08:32:18;;;;;;;35.15;23.45;;;;;;;;;;5038032;28;20041;-63
2022/04/23 08:34:45;;;;;;;37.33;24.65;;;;;;;;;;5051321;28;20033;-62
2022/04/23 08:37:12;;;;;;;32.03;22.30;;;;;;;;;;5049618;28;20068;-62
2022/04/23 08:39:37;;;;;;;35.20;24.20;;;;;;;;;;5034750;28;20228;-62
2022/04/23 08:42:06;;;;;;;37.75;24.77;;;;;;;;;;5029745;28;20053;-62
2022/04/23 08:44:32;;;;;;;37.00;24.15;;;;;;;;;;5028810;28;20052;-63
2022/04/23 08:46:57;;;;;;;33.40;23.33;;;;;;;;;;5034282;28;20060;-62
2022/04/23 08:49:29;;;;;;;40.10;24.42;;;;;;;;;;5031412;28;20765;-62
2022/04/23 08:52:18;;;;;;;35.72;23.77;;;;;;;;;;5032603;28;20132;-62
2022/04/23 08:54:45;;;;;;;35.72;23.05;;;;;;;;;;5040793;28;20381;-63
2022/04/23 08:57:10;;;;;;;33.20;22.70;;;;;;;;;;5043737;28;20486;-63
2022/04/23 08:59:36;;;;;;;35.22;23.63;;;;;;;;;;5042133;28;20041;-63
2022/04/23 09:02:03;;;;;;;34.58;23.67;;;;;;;;;;5033343;28;20025;-63
2022/04/23 09:04:29;;;;;;;34.95;23.80;;;;;;;;;;5020308;28;20539;-62
2022/04/23 09:06:54;;;;;;;37.25;22.63;;;;;;;;;;5032128;28;20388;-63
2022/04/23 09:09:22;;;;;;;35.58;23.60;;;;;;;;;;5040738;28;20067;-63
2022/04/23 09:11:56;;;;;;;35.45;22.77;;;;;;;;;;5042388;28;20056;-63
2022/04/23 09:14:28;;;;;;;32.75;22.73;;;;;;;;;;5035930;28;20041;-62
2022/04/23 09:25:17;;;;;;;33.97;23.13;;;;;;;;;;5028805;28;20040;-62
2022/04/23 09:27:44;;;;;;;33.50;22.15;;;;;;;;;;5040624;28;20025;-62
2022/04/23 09:30:12;;;;;;;31.48;21.70;;;;;;;;;;5040812;28;20086;-62
2022/04/23 09:32:55;;;;;;;32.75;21.42;;;;;;;;;;5026910;28;20494;-62
2022/04/23 09:35:21;;;;;;;32.58;21.75;;;;;;;;;;5031201;28;20475;-62
2022/04/23 09:40:30;;;;;;;32.60;22.23;;;;;;;;;;5046444;28;20139;-62
2022/04/23 09:43:04;;;;;;;32.60;21.33;;;;;;;;;;5037283;28;20037;-64
2022/04/23 09:45:31;;;;;;;30.10;21.00;;;;;;;;;;5050547;28;20040;-65
2022/04/23 09:48:06;;;;;;;29.30;21.42;;;;;;;;;;5048474;28;20037;-62
2022/04/23 09:50:38;;;;;;;32.38;21.63;;;;;;;;;;5039032;28;20071;-63
2022/04/23 09:53:11;;;;;;;32.50;21.73;;;;;;;;;;5049469;28;20039;-62
2022/04/23 09:55:37;;;;;;;30.30;21.50;;;;;;;;;;5049013;28;20025;-62
2022/04/23 09:58:07;;;;;;;32.08;21.08;;;;;;;;;;5039633;28;20033;-63
2022/04/23 10:00:38;;;;;;;30.83;21.45;;;;;;;;;;5038737;28;20048;-62
2022/04/23 10:03:06;;;;;;;29.67;20.58;;;;;;;;;;5028192;28;20033;-62
2022/04/23 10:05:38;;;;;;;31.92;21.50;;;;;;;;;;5030124;28;20029;-63
2022/04/23 10:08:10;;;;;;;30.08;20.67;;;;;;;;;;5039936;28;20037;-63
2022/04/23 10:10:42;;;;;;;33.72;21.23;;;;;;;;;;5047013;28;20029;-63
2022/04/23 10:13:09;;;;;;;33.15;21.42;;;;;;;;;;5046702;28;20116;-63
2022/04/23 10:15:37;;;;;;;32.53;21.35;;;;;;;;;;5039372;28;20473;-62
2022/04/23 10:18:05;;;;;;;31.58;22.25;;;;;;;;;;5047535;28;20037;-63
2022/04/23 10:20:30;;;;;;;32.05;20.73;;;;;;;;;;5042881;28;20087;-62
2022/04/23 10:23:09;;;;;;;28.67;20.17;;;;;;;;;;5047336;28;20049;-62
2022/04/23 10:25:50;;;;;;;30.35;20.00;;;;;;;;;;5048637;28;20040;-63
2022/04/23 10:28:18;;;;;;;30.23;21.25;;;;;;;;;;5045233;28;20103;-63
2022/04/23 10:30:48;;;;;;;29.45;21.02;;;;;;;;;;5026975;28;20025;-62
2022/04/23 10:33:23;;;;;;;34.13;21.38;;;;;;;;;;5036329;28;20033;-62
2022/04/23 10:36:02;;;;;;;31.55;22.45;;;;;;;;;;5045754;28;20029;-62
2022/04/23 10:38:28;;;;;;;31.00;22.15;;;;;;;;;;5047782;28;20494;-62
2022/04/23 10:40:56;;;;;;;27.58;20.55;;;;;;;;;;5038315;28;20037;-63
2022/04/23 10:43:21;;;;;;;30.17;20.17;;;;;;;;;;5042223;28;20035;-62
2022/04/23 10:45:48;;;;;;;34.50;20.48;;;;;;;;;;5035328;28;20021;-62
2022/04/23 10:48:19;;;;;;;31.30;21.95;;;;;;;;;;5029636;28;20065;-62
2022/04/23 10:51:04;;;;;;;31.73;21.90;;;;;;;;;;5024045;28;20029;-62
2022/04/23 10:53:37;;;;;;;30.73;21.63;;;;;;;;;;5036302;28;20041;-63
2022/04/23 10:56:06;;;;;;;28.15;20.73;;;;;;;;;;5035883;28;20029;-63
2022/04/23 10:58:33;;;;;;;29.33;21.05;;;;;;;;;;5016617;28;20494;-65
2022/04/23 11:01:20;;;;;;;30.23;21.67;;;;;;;;;;5034521;28;20037;-62
2022/04/23 11:04:06;;;;;;;30.65;21.52;;;;;;;;;;5035247;28;20032;-64
2022/04/23 11:12:36;;;;;;;27.60;19.73;;;;;;;;;;5046956;28;20209;-63
2022/04/23 11:15:14;;;;;;;29.60;21.00;;;;;;;;;;5032413;28;20364;-62
2022/04/23 11:17:39;;;;;;;30.63;20.27;;;;;;;;;;5031250;28;20072;-63
2022/04/23 11:20:05;;;;;;;28.80;21.08;;;;;;;;;;5044979;28;20061;-63
2022/04/23 11:22:30;;;;;;;28.80;21.50;;;;;;;;;;5037652;28;20060;-63
2022/04/23 11:24:57;;;;;;;24.92;20.58;;;;;;;;;;5042747;28;20386;-63
2022/04/23 11:27:26;;;;;;;27.63;20.77;;;;;;;;;;5041509;28;20036;-64
2022/04/23 11:29:52;;;;;;;27.00;20.58;;;;;;;;;;5039432;28;20839;-63
2022/04/23 11:32:28;;;;;;;26.58;19.88;;;;;;;;;;5043080;28;20029;-63
2022/04/23 11:35:01;;;;;;;24.70;19.83;;;;;;;;;;5038549;28;20037;-63
2022/04/23 11:37:34;;;;;;;26.75;19.38;;;;;;;;;;5028133;28;20080;-63
2022/04/23 11:40:11;;;;;;;24.92;19.42;;;;;;;;;;5028368;28;20133;-62
2022/04/23 11:42:41;;;;;;;23.73;19.08;;;;;;;;;;5015887;28;20034;-63
2022/04/23 11:45:11;;;;;;;26.25;20.55;;;;;;;;;;5029110;28;20442;-63
2022/04/23 11:47:36;;;;;;;23.83;18.23;;;;;;;;;;5012088;28;20108;-63
2022/04/23 11:50:13;;;;;;;23.55;18.27;;;;;;;;;;5029750;28;20120;-63
2022/04/23 11:52:39;;;;;;;22.38;17.55;;;;;;;;;;5048170;28;20060;-63
2022/04/23 11:55:06;;;;;;;23.10;18.90;;;;;;;;;;5040467;28;20116;-63
2022/04/23 11:57:31;;;;;;;23.83;18.55;;;;;;;;;;5044800;28;20456;-63
2022/04/23 12:00:01;;;;;;;23.10;18.40;;;;;;;;;;5023447;28;20108;-63
2022/04/23 12:02:29;;;;;;;23.67;17.60;;;;;;;;;;5044390;28;20029;-63
2022/04/23 12:04:59;;;;;;;23.55;18.88;;;;;;;;;;5046761;28;20037;-63
2022/04/23 12:07:27;;;;;;;20.98;17.70;;;;;;;;;;5039509;28;20414;-63
2022/04/23 12:10:00;;;;;;;23.90;18.40;;;;;;;;;;5045785;28;20037;-63
2022/04/23 12:12:27;;;;;;;22.85;18.50;;;;;;;;;;5025758;28;20376;-63
2022/04/23 12:15:05;;;;;;;23.13;18.80;;;;;;;;;;5036708;28;20037;-63
2022/04/23 12:17:46;;;;;;;24.27;18.77;;;;;;;;;;5053945;28;20037;-63
2022/04/23 12:20:13;;;;;;;24.20;19.65;;;;;;;;;;5033384;28;20042;-63
2022/04/23 12:22:39;;;;;;;23.80;18.88;;;;;;;;;;5034034;28;20049;-63
2022/04/23 12:25:16;;;;;;;24.58;18.60;;;;;;;;;;5029877;28;20033;-63
2022/04/23 12:27:54;;;;;;;23.83;17.30;;;;;;;;;;5039409;28;20037;-63
2022/04/23 12:42:01;;;;;;;23.85;18.48;;;;;;;;;;5030054;28;20036;-64
2022/04/23 12:44:36;;;;;;;30.88;18.67;;;;;;;;;;5036582;28;20502;-63
2022/04/23 12:47:06;;;;;;;21.65;17.65;;;;;;;;;;5031286;28;20042;-63
2022/04/23 12:49:48;;;;;;;22.80;18.40;;;;;;;;;;5031460;28;20087;-63
2022/04/23 12:52:20;;;;;;;21.05;17.10;;;;;;;;;;5019352;28;20042;-63
2022/04/23 12:55:12;;;;;;;20.90;16.75;;;;;;;;;;5020552;28;20101;-63
2022/04/23 12:57:38;;;;;;;23.15;16.85;;;;;;;;;;5024778;28;20034;-63
2022/04/23 13:00:05;;;;;;;21.40;16.95;;;;;;;;;;5044938;28;20056;-63
2022/04/23 13:02:38;;;;;;;21.02;16.67;;;;;;;;;;5013408;28;20034;-63
2022/04/23 13:05:07;;;;;;;22.13;16.75;;;;;;;;;;5031308;28;20065;-64
2022/04/23 13:10:17;;;;;;;21.65;17.67;;;;;;;;;;5038547;28;20036;-63
2022/04/23 13:12:43;;;;;;;20.40;16.92;;;;;;;;;;5049591;28;20028;-66
2022/04/23 13:15:09;;;;;;;20.60;15.45;;;;;;;;;;5041241;28;20086;-63
2022/04/23 13:17:38;;;;;;;20.30;14.77;;;;;;;;;;5051311;28;20037;-63
2022/04/23 13:20:08;;;;;;;18.27;14.13;;;;;;;;;;5050683;28;20037;-63
2022/04/23 13:22:34;;;;;;;17.40;13.97;;;;;;;;;;5047496;28;20041;-63
2022/04/23 13:25:00;;;;;;;20.15;14.93;;;;;;;;;;5031668;28;20937;-63
2022/04/23 13:27:25;;;;;;;18.40;14.77;;;;;;;;;;5046540;28;20029;-63
2022/04/23 13:29:54;;;;;;;19.90;15.68;;;;;;;;;;5042759;28;20061;-63
2022/04/23 13:32:19;;;;;;;20.48;15.65;;;;;;;;;;5038280;28;20431;-63
2022/04/23 13:34:44;;;;;;;17.42;14.23;;;;;;;;;;5030151;28;20120;-60
2022/04/23 13:37:10;;;;;;;19.77;15.43;;;;;;;;;;5038354;28;20119;-59
2022/04/23 13:39:36;;;;;;;19.35;15.18;;;;;;;;;;5029148;28;20040;-60
2022/04/23 13:42:02;;;;;;;18.92;15.65;;;;;;;;;;5028243;28;20614;-59
2022/04/23 13:44:28;;;;;;;18.90;14.18;;;;;;;;;;5044767;28;20040;-60
2022/04/23 13:46:55;;;;;;;20.75;14.98;;;;;;;;;;5023656;28;20045;-60
2022/04/23 13:49:22;;;;;;;21.70;14.73;;;;;;;;;;5032188;28;20397;-60
2022/04/23 13:51:48;;;;;;;19.30;15.05;;;;;;;;;;5040651;28;20021;-60
2022/04/23 13:54:13;;;;;;;21.77;14.43;;;;;;;;;;5044460;28;20082;-60
2022/04/23 13:56:38;;;;;;;19.95;15.70;;;;;;;;;;5042618;28;20029;-60
2022/04/23 13:59:04;;;;;;;16.55;14.18;;;;;;;;;;5049756;28;20128;-59
2022/04/23 14:01:29;;;;;;;17.23;14.05;;;;;;;;;;5039743;28;20049;-60
2022/04/23 14:12:07;;;;;;;16.33;13.82;;;;;;;;;;5041640;28;20457;-60
2022/04/23 14:14:32;;;;;;;19.60;14.70;;;;;;;;;;5022621;28;20143;-62
2022/04/23 14:16:57;;;;;;;16.90;13.60;;;;;;;;;;5026819;28;20033;-62
2022/04/23 14:19:23;;;;;;;16.50;12.65;;;;;;;;;;5028587;28;20057;-62
2022/04/23 14:21:48;;;;;;;17.80;13.27;;;;;;;;;;5029280;28;20051;-63
2022/04/23 14:24:13;;;;;;;17.92;13.93;;;;;;;;;;5033183;28;20037;-62
2022/04/23 14:26:39;;;;;;;17.27;12.80;;;;;;;;;;5042383;28;20463;-62
2022/04/23 14:29:06;;;;;;;18.98;13.63;;;;;;;;;;5048211;28;20289;-62
2022/04/23 14:31:31;;;;;;;19.40;13.45;;;;;;;;;;5013165;28;20474;-62
2022/04/23 14:33:57;;;;;;;18.40;14.55;;;;;;;;;;5049488;28;20057;-62
2022/04/23 14:36:22;;;;;;;18.40;13.43;;;;;;;;;;5050373;28;20052;-62
2022/04/23 14:38:49;;;;;;;19.17;13.48;;;;;;;;;;5045686;28;20033;-62
2022/04/23 14:41:15;;;;;;;17.20;13.15;;;;;;;;;;5041415;28;20525;-62
2022/04/23 14:43:40;;;;;;;17.00;12.60;;;;;;;;;;5046105;28;20036;-62
2022/04/23 14:46:06;;;;;;;15.52;12.93;;;;;;;;;;5042773;28;20260;-63
2022/04/23 14:48:31;;;;;;;17.25;13.48;;;;;;;;;;5034404;28;20498;-63
2022/04/23 14:53:41;;;;;;;15.20;12.13;;;;;;;;;;5050492;28;20102;-63
2022/04/23 14:56:06;;;;;;;19.40;13.20;;;;;;;;;;5046261;28;20780;-63
2022/04/23 14:58:32;;;;;;;16.15;12.68;;;;;;;;;;5041486;28;20033;-63
2022/04/23 15:00:57;;;;;;;17.02;13.10;;;;;;;;;;5048035;28;20037;-62
2022/04/23 15:03:23;;;;;;;17.15;12.55;;;;;;;;;;5043104;28;20349;-61
2022/04/23 15:05:48;;;;;;;14.52;12.70;;;;;;;;;;5031344;28;20483;-64
2022/04/23 15:08:14;;;;;;;17.58;13.38;;;;;;;;;;5044244;28;20060;-63